createdAt,value
2023-09-13T00:01:23.113Z,19.50
2023-09-13T00:03:52.869Z,20.30
2023-09-13T00:06:22.952Z,20.30
2023-09-13T00:08:53.065Z,19.60
2023-09-13T00:11:24.311Z,19.70
2023-09-13T00:13:54.458Z,20.30
2023-09-13T00:16:26.308Z,20.30
2023-09-13T00:18:55.865Z,19.60
2023-09-13T00:21:26.690Z,20.40
2023-09-13T00:24:00.632Z,20.20
2023-09-13T00:26:33.145Z,20.40
2023-09-13T00:29:02.036Z,20.00
2023-09-13T00:31:32.231Z,20.30
2023-09-13T00:34:05.873Z,20.10
2023-09-13T00:36:37.062Z,19.50
2023-09-13T00:39:15.108Z,20.30
2023-09-13T00:41:52.489Z,19.50
2023-09-13T00:44:22.519Z,18.60
2023-09-13T00:46:55.624Z,19.70
2023-09-13T00:49:25.535Z,20.10
2023-09-13T00:52:00.139Z,20.30
2023-09-13T00:54:30.899Z,20.30
2023-09-13T00:57:06.525Z,20.30
2023-09-13T00:59:36.690Z,20.40
2023-09-13T01:02:08.921Z,20.50
2023-09-13T01:04:49.858Z,20.50
2023-09-13T01:07:20.818Z,20.50
2023-09-13T01:09:54.348Z,20.60
2023-09-13T01:12:26.515Z,20.30
2023-09-13T01:14:56.152Z,19.70
2023-09-13T01:17:41.488Z,20.70
2023-09-13T01:20:19.401Z,20.60
2023-09-13T01:23:20.683Z,20.70
2023-09-13T01:26:31.926Z,20.80
2023-09-13T01:29:17.565Z,21.00
2023-09-13T01:31:48.435Z,20.90
2023-09-13T01:34:18.862Z,21.20
2023-09-13T01:36:48.333Z,21.30
2023-09-13T01:39:17.811Z,21.30
2023-09-13T01:41:57.427Z,20.00
2023-09-13T01:44:30.073Z,19.90
2023-09-13T01:47:01.924Z,21.20
2023-09-13T01:49:32.909Z,21.50
2023-09-13T01:52:02.698Z,20.80
2023-09-13T01:54:31.858Z,21.40
2023-09-13T01:57:03.020Z,21.50
2023-09-13T01:59:36.323Z,19.80
2023-09-13T02:02:06.518Z,21.50
2023-09-13T02:04:37.473Z,21.20
2023-09-13T02:07:06.880Z,20.30
2023-09-13T02:09:38.424Z,21.10
2023-09-13T02:12:14.153Z,20.90
2023-09-13T02:14:44.653Z,21.10
2023-09-13T02:17:14.394Z,21.10
2023-09-13T02:19:44.056Z,21.60
2023-09-13T02:22:12.856Z,21.40
2023-09-13T02:24:49.832Z,21.30
2023-09-13T02:27:18.839Z,21.20
2023-09-13T02:29:51.697Z,21.50
2023-09-13T02:32:20.671Z,21.30
2023-09-13T02:34:50.118Z,21.30
2023-09-13T02:37:20.769Z,21.00
2023-09-13T02:39:50.513Z,20.60
2023-09-13T02:42:20.809Z,21.30
2023-09-13T02:44:53.921Z,21.30
2023-09-13T02:47:25.892Z,21.00
2023-09-13T02:49:55.985Z,21.20
2023-09-13T02:52:33.408Z,20.50
2023-09-13T02:55:06.939Z,21.30
2023-09-13T02:57:40.276Z,20.80
2023-09-13T03:00:13.071Z,21.20
2023-09-13T03:02:42.459Z,20.80
2023-09-13T03:05:12.870Z,21.30
2023-09-13T03:07:42.169Z,21.30
2023-09-13T03:10:15.424Z,20.50
2023-09-13T03:12:52.875Z,21.00
2023-09-13T03:15:27.719Z,21.40
2023-09-13T03:18:00.549Z,21.30
2023-09-13T03:20:34.172Z,21.40
2023-09-13T03:23:03.695Z,21.40
2023-09-13T03:25:36.723Z,21.50
2023-09-13T03:28:09.803Z,21.40
2023-09-13T03:30:47.894Z,21.30
2023-09-13T03:33:17.202Z,21.30
2023-09-13T03:35:46.733Z,20.20
2023-09-13T03:38:17.633Z,19.90
2023-09-13T03:40:48.752Z,21.30
2023-09-13T03:43:26.038Z,21.30
2023-09-13T03:45:59.841Z,21.30
2023-09-13T03:48:32.420Z,21.30
2023-09-13T03:51:05.006Z,20.30
2023-09-13T03:53:35.385Z,21.20
2023-09-13T03:56:12.968Z,21.20
2023-09-13T03:58:43.425Z,21.20
2023-09-13T04:01:15.759Z,21.20
2023-09-13T04:03:50.113Z,21.10
2023-09-13T04:06:21.377Z,20.90
2023-09-13T04:08:58.871Z,20.80
2023-09-13T04:11:30.353Z,20.00
2023-09-13T04:14:04.327Z,20.80
2023-09-13T04:16:44.221Z,20.80
2023-09-13T04:19:14.352Z,20.60
2023-09-13T04:21:44.887Z,20.20
2023-09-13T04:24:16.160Z,20.40
2023-09-13T04:26:46.596Z,20.40
2023-09-13T04:29:17.422Z,20.30
2023-09-13T04:31:50.884Z,20.20
2023-09-13T04:34:20.651Z,20.20
2023-09-13T04:36:57.785Z,19.90
2023-09-13T04:39:37.885Z,19.40
2023-09-13T04:42:08.841Z,20.10
2023-09-13T04:44:41.287Z,20.20
2023-09-13T04:47:12.879Z,20.30
2023-09-13T04:49:42.126Z,20.20
2023-09-13T04:52:14.609Z,20.30
2023-09-13T04:54:45.291Z,20.20
2023-09-13T05:00:34.393Z,19.80
2023-09-13T05:03:08.076Z,20.40
2023-09-13T05:08:20.764Z,20.00
2023-09-13T05:10:53.120Z,19.80
2023-09-13T05:13:23.875Z,20.00
2023-09-13T05:15:53.412Z,20.20
2023-09-13T05:18:32.150Z,20.40
2023-09-13T05:21:05.565Z,20.30
2023-09-13T05:23:40.671Z,20.10
2023-09-13T05:26:17.730Z,20.10
2023-09-13T05:28:47.588Z,20.10
2023-09-13T05:31:17.723Z,19.20
2023-09-13T05:33:48.876Z,20.20
2023-09-13T05:36:22.263Z,20.20
2023-09-13T05:39:15.045Z,20.30
2023-09-13T05:41:44.409Z,20.30
2023-09-13T05:44:14.083Z,20.40
2023-09-13T05:46:44.656Z,20.40
2023-09-13T05:49:19.711Z,19.60
2023-09-13T05:51:49.934Z,20.40
2023-09-13T05:54:20.102Z,19.90
2023-09-13T05:56:49.799Z,20.60
2023-09-13T05:59:19.111Z,19.80
2023-09-13T06:02:09.582Z,20.80
2023-09-13T06:05:08.743Z,21.00
2023-09-13T06:11:01.367Z,21.10
2023-09-13T06:13:37.830Z,21.30
2023-09-13T06:16:07.618Z,21.40
2023-09-13T06:21:22.311Z,21.70
2023-09-13T06:23:51.669Z,21.80
2023-09-13T06:26:28.003Z,21.90
2023-09-13T06:29:00.436Z,22.30
2023-09-13T06:31:35.636Z,22.40
2023-09-13T06:34:25.020Z,22.00
2023-09-13T06:36:58.823Z,22.10
2023-09-13T06:39:28.809Z,22.50
2023-09-13T06:41:58.351Z,22.50
2023-09-13T06:44:43.695Z,21.90
2023-09-13T06:47:18.077Z,22.40
2023-09-13T06:49:49.329Z,22.50
2023-09-13T06:52:33.883Z,22.40
2023-09-13T06:55:06.548Z,22.30
2023-09-13T06:57:37.778Z,22.40
2023-09-13T07:00:12.773Z,22.20
2023-09-13T07:02:45.633Z,22.00
2023-09-13T07:07:50.794Z,22.40
2023-09-13T07:10:19.655Z,22.30
2023-09-13T07:12:49.571Z,21.90
2023-09-13T07:15:20.177Z,22.30
2023-09-13T07:17:49.110Z,22.50
2023-09-13T07:20:17.989Z,22.70
2023-09-13T07:22:46.740Z,22.80
2023-09-13T07:25:17.058Z,23.00
2023-09-13T07:27:45.965Z,23.10
2023-09-13T07:30:15.259Z,23.20
2023-09-13T07:32:44.192Z,23.10
2023-09-13T07:35:12.852Z,23.40
2023-09-13T07:37:41.769Z,23.60
2023-09-13T07:40:13.137Z,23.60
2023-09-13T07:42:43.596Z,23.50
2023-09-13T07:45:15.723Z,23.60
2023-09-13T07:47:44.565Z,23.30
2023-09-13T07:50:32.575Z,23.20
2023-09-13T07:53:05.607Z,22.80
2023-09-13T07:55:35.762Z,23.00
2023-09-13T07:58:07.517Z,22.90
2023-09-13T08:00:37.387Z,22.70
2023-09-13T08:03:07.631Z,23.00
2023-09-13T08:05:36.372Z,23.30
2023-09-13T08:08:05.745Z,23.80
2023-09-13T08:10:35.195Z,24.00
2023-09-13T08:13:06.608Z,24.00
2023-09-13T08:15:47.423Z,24.00
2023-09-13T08:18:18.848Z,23.80
2023-09-13T08:20:47.972Z,23.60
2023-09-13T08:23:17.177Z,22.80
2023-09-13T08:25:47.112Z,23.70
2023-09-13T08:28:18.251Z,23.50
2023-09-13T08:30:47.279Z,23.10
2023-09-13T08:33:17.419Z,23.30
2023-09-13T08:35:46.490Z,23.50
2023-09-13T08:38:15.144Z,23.50
2023-09-13T08:40:47.956Z,23.60
2023-09-13T08:43:21.594Z,23.80
2023-09-13T08:45:53.406Z,23.80
2023-09-13T08:48:23.827Z,23.90
2023-09-13T08:50:52.631Z,24.10
2023-09-13T08:53:25.514Z,24.40
2023-09-13T08:55:57.099Z,24.40
2023-09-13T08:58:29.370Z,23.70
2023-09-13T09:01:06.298Z,24.30
2023-09-13T09:04:19.124Z,24.40
2023-09-13T09:06:48.979Z,24.20
2023-09-13T09:09:24.098Z,24.20
2023-09-13T09:11:59.931Z,23.90
2023-09-13T09:14:35.086Z,23.70
2023-09-13T09:17:06.735Z,23.70
2023-09-13T09:19:36.072Z,23.80
2023-09-13T09:22:06.006Z,23.80
2023-09-13T09:24:35.719Z,23.70
2023-09-13T09:27:05.230Z,23.70
2023-09-13T09:29:42.665Z,23.70
2023-09-13T09:32:16.054Z,23.60
2023-09-13T09:34:45.259Z,23.60
2023-09-13T09:37:14.001Z,23.50
2023-09-13T09:39:44.587Z,23.30
2023-09-13T09:42:17.802Z,23.60
2023-09-13T09:44:48.980Z,23.60
2023-09-13T09:47:18.367Z,23.60
2023-09-13T09:49:49.230Z,23.50
2023-09-13T09:52:18.948Z,23.60
2023-09-13T09:54:51.274Z,23.40
2023-09-13T09:57:24.515Z,23.60
2023-09-13T09:59:54.897Z,23.80
2023-09-13T10:02:30.500Z,23.70
2023-09-13T10:05:04.332Z,24.00
2023-09-13T10:07:33.373Z,24.10
2023-09-13T10:10:02.307Z,24.20
2023-09-13T10:12:48.524Z,24.30
2023-09-13T10:15:20.731Z,24.40
2023-09-13T10:17:52.401Z,24.30
2023-09-13T10:20:26.711Z,24.70
2023-09-13T10:22:58.845Z,24.70
2023-09-13T10:25:34.306Z,24.60
2023-09-13T10:28:06.429Z,24.70
2023-09-13T10:30:38.426Z,24.80
2023-09-13T10:33:13.559Z,24.80
2023-09-13T10:35:48.698Z,24.80
2023-09-13T10:38:34.264Z,24.80
2023-09-13T10:41:08.440Z,24.80
2023-09-13T10:43:39.512Z,24.70
2023-09-13T10:46:10.275Z,25.00
2023-09-13T10:48:41.242Z,24.60
2023-09-13T10:51:12.403Z,24.80
2023-09-13T10:53:42.613Z,25.00
2023-09-13T10:56:14.386Z,25.00
2023-09-13T10:58:47.523Z,24.80
2023-09-13T11:01:19.425Z,24.60
2023-09-13T11:03:48.731Z,24.40
2023-09-13T11:06:18.528Z,24.40
2023-09-13T11:08:48.228Z,24.60
2023-09-13T11:11:19.861Z,24.50
2023-09-13T11:13:54.763Z,24.50
2023-09-13T11:16:26.223Z,24.60
2023-09-13T11:18:58.654Z,23.90
2023-09-13T11:21:33.801Z,24.10
2023-09-13T11:24:05.283Z,23.70
2023-09-13T11:26:50.704Z,23.30
2023-09-13T11:29:27.805Z,23.10
2023-09-13T11:32:06.528Z,23.20
2023-09-13T11:34:41.429Z,23.10
2023-09-13T11:37:14.456Z,22.90
2023-09-13T11:39:55.625Z,22.40
2023-09-13T11:42:35.088Z,22.90
2023-09-13T11:45:33.137Z,22.90
2023-09-13T11:48:25.878Z,22.80
2023-09-13T11:51:15.933Z,22.90
2023-09-13T11:53:49.048Z,22.80
2023-09-13T11:59:13.675Z,22.80
2023-09-13T12:01:48.318Z,22.80
2023-09-13T12:04:52.126Z,23.20
2023-09-13T12:07:14.982Z,23.50
2023-09-13T12:10:00.114Z,23.80
2023-09-13T12:16:14.357Z,24.00
2023-09-13T12:19:03.127Z,24.90
2023-09-13T12:21:38.330Z,25.40
2023-09-13T12:24:10.458Z,25.60
2023-09-13T12:26:43.241Z,25.80
2023-09-13T12:29:18.432Z,25.80
2023-09-13T12:31:48.898Z,25.50
2023-09-13T12:34:18.839Z,26.20
2023-09-13T12:36:50.669Z,26.70
2023-09-13T12:39:29.292Z,26.50
2023-09-13T12:41:59.794Z,27.40
2023-09-13T12:50:18.393Z,27.30
2023-09-13T12:52:58.446Z,27.50
2023-09-13T12:55:29.241Z,27.60
2023-09-13T12:58:05.839Z,27.70
2023-09-13T13:00:40.251Z,27.80
2023-09-13T13:03:09.529Z,27.80
2023-09-13T13:05:49.325Z,27.90
2023-09-13T13:08:20.493Z,27.90
2023-09-13T13:10:59.038Z,28.10
2023-09-13T13:13:36.671Z,27.90
2023-09-13T13:16:16.552Z,27.50
2023-09-13T13:18:55.411Z,27.40
2023-09-13T13:21:38.694Z,27.20
2023-09-13T13:27:17.971Z,26.90
2023-09-13T13:29:49.618Z,26.90
2023-09-13T13:32:19.874Z,26.90
2023-09-13T13:47:15.789Z,26.60
2023-09-13T13:49:44.659Z,26.20
2023-09-13T13:52:13.473Z,26.40
2023-09-13T13:54:43.543Z,26.30
2023-09-13T13:57:13.520Z,26.00
2023-09-13T13:59:42.735Z,25.90
2023-09-13T14:02:12.161Z,25.70
2023-09-13T14:04:42.597Z,25.80
2023-09-13T14:07:11.281Z,25.70
2023-09-13T14:09:40.660Z,25.60
2023-09-13T14:12:11.783Z,25.60
2023-09-13T14:14:41.760Z,25.40
2023-09-13T14:17:13.262Z,25.30
2023-09-13T14:19:43.571Z,25.30
2023-09-13T14:22:12.293Z,25.50
2023-09-13T14:24:41.034Z,25.30
2023-09-13T14:27:12.159Z,25.60
2023-09-13T14:29:42.796Z,26.00
2023-09-13T14:32:12.891Z,26.20
2023-09-13T14:34:51.135Z,26.50
2023-09-13T14:37:20.367Z,26.30
2023-09-13T14:39:50.376Z,26.60
2023-09-13T14:42:19.081Z,26.30
2023-09-13T14:44:47.791Z,26.20
2023-09-13T14:47:18.223Z,26.30
2023-09-13T14:49:48.552Z,26.20
2023-09-13T14:52:17.854Z,26.20
2023-09-13T14:54:47.095Z,26.10
2023-09-13T14:57:15.896Z,25.80
2023-09-13T14:59:46.123Z,25.60
2023-09-13T15:02:14.952Z,25.30
2023-09-13T15:04:51.587Z,25.40
2023-09-13T15:07:23.094Z,25.40
2023-09-13T15:09:52.292Z,25.50
2023-09-13T15:12:21.124Z,25.40
2023-09-13T15:14:49.893Z,25.40
2023-09-13T15:17:21.432Z,25.20
2023-09-13T15:19:50.004Z,25.10
2023-09-13T15:22:19.034Z,24.70
2023-09-13T15:24:50.208Z,24.70
2023-09-13T15:27:20.308Z,24.70
2023-09-13T15:29:49.534Z,24.70
2023-09-13T15:32:18.299Z,24.20
2023-09-13T15:34:49.617Z,24.50
2023-09-13T15:37:20.630Z,24.30
2023-09-13T15:39:51.640Z,24.60
2023-09-13T15:42:20.481Z,24.50
2023-09-13T15:44:49.252Z,24.70
2023-09-13T15:47:18.556Z,24.70
2023-09-13T15:50:02.909Z,24.50
2023-09-13T15:52:33.150Z,24.70
2023-09-13T15:55:09.470Z,23.60
2023-09-13T15:57:38.582Z,24.30
2023-09-13T16:00:10.655Z,24.40
2023-09-13T16:02:39.766Z,24.10
2023-09-13T16:05:09.810Z,24.50
2023-09-13T16:07:40.387Z,24.30
2023-09-13T16:10:12.118Z,24.50
2023-09-13T16:12:41.711Z,24.40
2023-09-13T16:15:13.117Z,24.40
2023-09-13T16:17:42.641Z,24.20
2023-09-13T16:20:13.084Z,24.20
2023-09-13T16:22:43.753Z,24.20
2023-09-13T16:25:18.242Z,23.80
2023-09-13T16:27:47.447Z,23.40
2023-09-13T16:30:30.540Z,23.10
2023-09-13T16:32:59.814Z,23.00
2023-09-13T16:35:28.527Z,24.20
2023-09-13T16:37:58.645Z,24.10
2023-09-13T16:40:30.260Z,24.00
2023-09-13T16:42:58.990Z,24.00
2023-09-13T16:45:27.989Z,23.90
2023-09-13T16:47:57.320Z,23.90
2023-09-13T16:50:26.554Z,23.80
2023-09-13T16:52:55.906Z,23.90
2023-09-13T16:55:25.975Z,23.20
2023-09-13T16:57:56.485Z,23.80
2023-09-13T17:00:36.486Z,23.70
2023-09-13T17:03:08.509Z,23.40
2023-09-13T17:05:39.192Z,23.50
2023-09-13T17:08:13.687Z,23.50
2023-09-13T17:10:43.118Z,23.30
2023-09-13T17:13:23.322Z,22.50
2023-09-13T17:15:53.275Z,23.20
2023-09-13T17:18:22.424Z,23.10
2023-09-13T17:20:54.173Z,21.90
2023-09-13T17:23:24.507Z,23.00
2023-09-13T17:25:56.321Z,23.00
2023-09-13T17:28:27.147Z,22.60
2023-09-13T17:30:56.150Z,22.80
2023-09-13T17:33:26.354Z,22.60
2023-09-13T17:35:55.542Z,22.80
2023-09-13T17:38:25.498Z,22.70
2023-09-13T17:40:55.962Z,22.30
2023-09-13T17:43:33.849Z,22.60
2023-09-13T17:46:03.213Z,22.50
2023-09-13T17:48:32.566Z,22.60
2023-09-13T17:51:01.511Z,22.60
2023-09-13T17:53:30.331Z,21.80
2023-09-13T17:55:59.022Z,22.30
2023-09-13T17:58:29.934Z,22.50
2023-09-13T18:01:00.101Z,22.30
2023-09-13T18:03:30.236Z,22.40
2023-09-13T18:05:58.898Z,22.40
2023-09-13T18:08:27.856Z,22.30
2023-09-13T18:10:56.530Z,22.10
2023-09-13T18:13:26.193Z,22.20
2023-09-13T18:16:00.485Z,22.00
2023-09-13T18:18:29.985Z,22.20
2023-09-13T18:21:01.217Z,22.00
2023-09-13T18:26:33.511Z,20.70
2023-09-13T18:29:02.318Z,22.10
2023-09-13T18:31:34.277Z,21.10
2023-09-13T18:34:05.694Z,22.00
2023-09-13T18:36:35.840Z,21.90
2023-09-13T18:44:44.034Z,21.90
2023-09-13T18:47:20.771Z,21.90
2023-09-13T18:49:49.710Z,21.70
2023-09-13T18:52:21.562Z,21.70
2023-09-13T18:54:50.904Z,21.60
2023-09-13T18:57:20.135Z,21.60
2023-09-13T18:59:49.206Z,21.50
2023-09-13T19:02:19.658Z,21.00
2023-09-13T19:04:50.394Z,21.30
2023-09-13T19:07:20.372Z,21.40
2023-09-13T19:09:49.937Z,21.30
2023-09-13T19:12:18.749Z,21.10
2023-09-13T19:14:47.494Z,21.00
2023-09-13T19:17:18.189Z,21.30
2023-09-13T19:19:48.368Z,21.40
2023-09-13T19:22:17.502Z,21.10
2023-09-13T19:24:56.669Z,19.60
2023-09-13T19:27:28.683Z,21.00
2023-09-13T19:29:57.689Z,21.20
2023-09-13T19:32:27.888Z,20.90
2023-09-13T19:34:58.317Z,21.20
2023-09-13T19:37:29.807Z,21.20
2023-09-13T19:40:01.372Z,21.20
2023-09-13T19:42:31.325Z,21.10
2023-09-13T19:45:00.215Z,21.10
2023-09-13T19:47:31.176Z,21.00
2023-09-13T19:50:02.337Z,21.00
2023-09-13T19:52:31.132Z,21.00
2023-09-13T19:55:01.665Z,20.90
2023-09-13T19:57:33.196Z,21.00
2023-09-13T20:00:03.933Z,21.10
2023-09-13T20:02:34.124Z,21.20
2023-09-13T20:05:05.936Z,21.10
2023-09-13T20:07:36.265Z,20.90
2023-09-13T20:10:06.261Z,21.10
2023-09-13T20:12:35.872Z,20.90
2023-09-13T20:15:05.041Z,20.90
2023-09-13T20:17:34.302Z,20.70
2023-09-13T20:20:05.508Z,20.80
2023-09-13T20:22:37.106Z,20.80
2023-09-13T20:25:06.653Z,20.60
2023-09-13T20:27:36.343Z,20.50
2023-09-13T20:30:06.663Z,20.60
2023-09-13T20:32:36.987Z,20.60
2023-09-13T20:35:09.873Z,20.60
2023-09-13T20:37:38.554Z,20.60
2023-09-13T20:40:10.529Z,20.60
2023-09-13T20:42:40.603Z,20.60
2023-09-13T20:45:14.314Z,20.60
2023-09-13T20:47:43.443Z,20.50
2023-09-13T20:50:14.165Z,20.50
2023-09-13T20:52:43.914Z,20.50
2023-09-13T20:55:13.566Z,20.50
2023-09-13T20:57:42.371Z,20.40
2023-09-13T21:00:12.610Z,20.50
2023-09-13T21:02:41.177Z,20.60
2023-09-13T21:05:14.037Z,20.50
2023-09-13T21:07:44.425Z,20.50
2023-09-13T21:10:15.046Z,20.60
2023-09-13T21:12:44.566Z,20.60
2023-09-13T21:15:14.112Z,20.50
2023-09-13T21:17:43.218Z,20.20
2023-09-13T21:20:13.889Z,20.50
2023-09-13T21:22:42.529Z,20.50
2023-09-13T21:25:12.917Z,20.40
2023-09-13T21:27:41.916Z,20.40
2023-09-13T21:30:13.116Z,20.40
2023-09-13T21:32:43.448Z,20.50
2023-09-13T21:35:14.447Z,20.50
2023-09-13T21:37:43.198Z,20.60
2023-09-13T21:40:13.875Z,20.50
2023-09-13T21:42:42.538Z,20.50
2023-09-13T21:45:12.136Z,20.50
2023-09-13T21:47:41.269Z,20.50
2023-09-13T21:50:10.741Z,20.50
2023-09-13T21:52:42.292Z,20.40
2023-09-13T21:55:11.308Z,20.40
2023-09-13T21:57:40.104Z,20.40
2023-09-13T22:00:16.323Z,20.30
2023-09-13T22:02:46.351Z,20.30
2023-09-13T22:05:23.418Z,20.20
2023-09-13T22:07:55.111Z,20.10
2023-09-13T22:10:24.013Z,20.20
2023-09-13T22:12:54.854Z,19.90
2023-09-13T22:15:25.463Z,20.10
2023-09-13T22:17:55.506Z,20.10
2023-09-13T22:20:25.539Z,20.10
2023-09-13T22:22:56.148Z,20.00
2023-09-13T22:25:25.103Z,20.00
2023-09-13T22:27:54.289Z,20.00
2023-09-13T22:30:23.237Z,20.00
2023-09-13T22:32:53.186Z,19.80
2023-09-13T22:35:22.318Z,19.90
2023-09-13T22:37:51.528Z,19.90
2023-09-13T22:40:21.873Z,19.90
2023-09-13T22:42:50.816Z,19.90
2023-09-13T22:45:19.758Z,19.90
2023-09-13T22:47:48.837Z,19.80
2023-09-13T22:50:17.957Z,19.80
2023-09-13T22:52:46.896Z,19.70
2023-09-13T22:55:15.805Z,19.60
2023-09-13T22:57:46.217Z,19.50
2023-09-13T23:00:16.898Z,19.40
2023-09-13T23:02:46.042Z,19.40
2023-09-13T23:05:18.356Z,19.40
2023-09-13T23:07:47.555Z,19.30
2023-09-13T23:10:17.277Z,18.80
2023-09-13T23:12:48.495Z,19.20
2023-09-13T23:15:18.796Z,19.10
2023-09-13T23:17:48.251Z,19.20
2023-09-13T23:20:19.695Z,19.10
2023-09-13T23:22:52.830Z,18.90
2023-09-13T23:25:21.643Z,18.90
2023-09-13T23:27:53.195Z,18.80
2023-09-13T23:30:22.244Z,18.80
2023-09-13T23:32:50.832Z,18.80
2023-09-13T23:35:19.925Z,18.80
2023-09-13T23:37:49.003Z,18.90
2023-09-13T23:40:18.628Z,18.90
2023-09-13T23:42:47.399Z,19.00
2023-09-13T23:45:18.207Z,18.90
2023-09-13T23:47:47.091Z,18.90
2023-09-13T23:50:17.537Z,18.60
2023-09-13T23:52:47.572Z,18.90
2023-09-13T23:55:16.552Z,18.80
2023-09-13T23:57:48.617Z,18.70
